sensor_id;sensor_type;location;lat;lon;timestamp;pressure;altitude;pressure_sealevel;temperature;humidity
70323;BME280;57735;56.264;43.898;2023-06-01T00:00:01;99950.53;;;12.27;82.84
70323;BME280;57735;56.264;43.898;2023-06-01T00:02:36;99954.19;;;12.26;82.77
70323;BME280;57735;56.264;43.898;2023-06-01T00:05:09;99962.88;;;12.28;82.84
70323;BME280;57735;56.264;43.898;2023-06-01T00:07:42;99960.88;;;12.30;82.80
70323;BME280;57735;56.264;43.898;2023-06-01T00:10:13;99960.53;;;12.33;83.01
70323;BME280;57735;56.264;43.898;2023-06-01T00:12:44;99967.53;;;12.34;82.88
70323;BME280;57735;56.264;43.898;2023-06-01T00:15:14;99972.19;;;12.40;82.88
70323;BME280;57735;56.264;43.898;2023-06-01T00:17:46;99957.16;;;12.39;82.38
70323;BME280;57735;56.264;43.898;2023-06-01T00:20:17;99961.50;;;12.40;82.54
70323;BME280;57735;56.264;43.898;2023-06-01T00:22:48;99966.00;;;12.39;82.40
70323;BME280;57735;56.264;43.898;2023-06-01T00:25:20;99973.19;;;12.39;82.47
70323;BME280;57735;56.264;43.898;2023-06-01T00:27:51;99976.03;;;12.37;82.57
70323;BME280;57735;56.264;43.898;2023-06-01T00:30:21;99982.22;;;12.38;82.65
70323;BME280;57735;56.264;43.898;2023-06-01T00:32:52;99980.38;;;12.38;82.77
70323;BME280;57735;56.264;43.898;2023-06-01T00:35:23;99986.56;;;12.39;82.72
70323;BME280;57735;56.264;43.898;2023-06-01T00:37:54;99991.53;;;12.42;83.06
70323;BME280;57735;56.264;43.898;2023-06-01T00:40:25;99995.03;;;12.42;82.59
70323;BME280;57735;56.264;43.898;2023-06-01T00:42:56;99993.03;;;12.44;82.41
70323;BME280;57735;56.264;43.898;2023-06-01T00:45:26;99995.88;;;12.43;82.33
70323;BME280;57735;56.264;43.898;2023-06-01T00:47:59;100007.28;;;12.37;82.23
70323;BME280;57735;56.264;43.898;2023-06-01T00:50:36;100007.97;;;12.31;82.46
70323;BME280;57735;56.264;43.898;2023-06-01T00:53:11;100011.31;;;12.33;82.79
70323;BME280;57735;56.264;43.898;2023-06-01T00:55:45;100009.97;;;12.37;82.65
70323;BME280;57735;56.264;43.898;2023-06-01T00:58:17;100013.94;;;12.41;82.32
70323;BME280;57735;56.264;43.898;2023-06-01T01:00:48;100013.94;;;12.41;82.30
70323;BME280;57735;56.264;43.898;2023-06-01T01:03:21;100009.63;;;12.40;82.08
70323;BME280;57735;56.264;43.898;2023-06-01T01:06:42;100017.44;;;12.41;82.10
70323;BME280;57735;56.264;43.898;2023-06-01T01:09:17;100012.41;;;12.46;82.09
70323;BME280;57735;56.264;43.898;2023-06-01T01:12:13;100022.06;;;12.55;81.86
70323;BME280;57735;56.264;43.898;2023-06-01T01:14:51;100015.50;;;12.58;81.42
70323;BME280;57735;56.264;43.898;2023-06-01T01:17:36;100016.84;;;12.62;81.26
70323;BME280;57735;56.264;43.898;2023-06-01T01:20:13;100007.94;;;12.70;81.23
70323;BME280;57735;56.264;43.898;2023-06-01T01:28:42;100016.81;;;12.70;80.35
70323;BME280;57735;56.264;43.898;2023-06-01T01:31:16;100015.31;;;12.68;80.43
70323;BME280;57735;56.264;43.898;2023-06-01T01:33:50;100031.88;;;12.63;80.18
70323;BME280;57735;56.264;43.898;2023-06-01T01:36:23;100037.56;;;12.60;80.34
70323;BME280;57735;56.264;43.898;2023-06-01T01:38:55;100032.69;;;12.64;80.42
70323;BME280;57735;56.264;43.898;2023-06-01T01:41:25;100031.00;;;12.71;80.18
70323;BME280;57735;56.264;43.898;2023-06-01T01:43:56;100034.13;;;12.74;80.07
70323;BME280;57735;56.264;43.898;2023-06-01T01:46:33;100041.31;;;12.74;79.33
70323;BME280;57735;56.264;43.898;2023-06-01T01:49:46;100055.53;;;12.74;78.97
70323;BME280;57735;56.264;43.898;2023-06-01T01:52:22;100049.00;;;12.77;79.01
70323;BME280;57735;56.264;43.898;2023-06-01T01:54:58;100054.66;;;12.82;78.86
70323;BME280;57735;56.264;43.898;2023-06-01T01:57:30;100066.38;;;12.81;78.24
70323;BME280;57735;56.264;43.898;2023-06-01T02:00:04;100068.38;;;12.79;77.74
70323;BME280;57735;56.264;43.898;2023-06-01T02:02:37;100076.09;;;12.74;77.66
70323;BME280;57735;56.264;43.898;2023-06-01T02:05:10;100077.31;;;12.71;77.71
70323;BME280;57735;56.264;43.898;2023-06-01T02:07:41;100085.50;;;12.70;77.75
70323;BME280;57735;56.264;43.898;2023-06-01T02:10:12;100081.00;;;12.70;77.72
70323;BME280;57735;56.264;43.898;2023-06-01T02:12:43;100085.69;;;12.68;77.52
70323;BME280;57735;56.264;43.898;2023-06-01T02:15:14;100087.16;;;12.71;77.84
70323;BME280;57735;56.264;43.898;2023-06-01T02:17:45;100084.97;;;12.74;77.78
70323;BME280;57735;56.264;43.898;2023-06-01T02:20:16;100091.28;;;12.81;77.36
70323;BME280;57735;56.264;43.898;2023-06-01T02:22:47;100097.28;;;12.83;77.39
70323;BME280;57735;56.264;43.898;2023-06-01T02:25:21;100101.97;;;12.89;76.92
70323;BME280;57735;56.264;43.898;2023-06-01T02:27:52;100111.00;;;12.88;76.64
70323;BME280;57735;56.264;43.898;2023-06-01T02:30:22;100114.66;;;12.87;76.76
70323;BME280;57735;56.264;43.898;2023-06-01T02:32:53;100118.03;;;12.81;76.45
70323;BME280;57735;56.264;43.898;2023-06-01T02:35:24;100123.06;;;12.76;76.25
70323;BME280;57735;56.264;43.898;2023-06-01T02:37:55;100119.25;;;12.71;76.28
70323;BME280;57735;56.264;43.898;2023-06-01T02:40:27;100131.97;;;12.69;76.25
70323;BME280;57735;56.264;43.898;2023-06-01T02:42:58;100121.09;;;12.70;76.29
70323;BME280;57735;56.264;43.898;2023-06-01T02:45:28;100139.81;;;12.70;76.03
70323;BME280;57735;56.264;43.898;2023-06-01T02:48:02;100120.78;;;12.65;75.98
70323;BME280;57735;56.264;43.898;2023-06-01T02:50:33;100132.97;;;12.68;75.62
70323;BME280;57735;56.264;43.898;2023-06-01T02:53:07;100129.13;;;12.70;76.33
70323;BME280;57735;56.264;43.898;2023-06-01T02:55:37;100130.81;;;12.71;75.65
70323;BME280;57735;56.264;43.898;2023-06-01T02:58:08;100140.78;;;12.77;75.52
70323;BME280;57735;56.264;43.898;2023-06-01T03:00:45;100138.78;;;12.79;74.58
70323;BME280;57735;56.264;43.898;2023-06-01T03:03:17;100133.09;;;12.82;74.23
70323;BME280;57735;56.264;43.898;2023-06-01T03:05:47;100133.09;;;12.82;73.88
70323;BME280;57735;56.264;43.898;2023-06-01T03:08:18;100131.91;;;12.85;74.24
70323;BME280;57735;56.264;43.898;2023-06-01T03:10:50;100139.09;;;12.84;73.55
70323;BME280;57735;56.264;43.898;2023-06-01T03:13:20;100146.28;;;12.84;73.52
70323;BME280;57735;56.264;43.898;2023-06-01T03:15:51;100151.28;;;12.87;73.39
70323;BME280;57735;56.264;43.898;2023-06-01T03:18:22;100157.47;;;12.87;73.24
70323;BME280;57735;56.264;43.898;2023-06-01T03:20:53;100177.88;;;12.88;73.23
70323;BME280;57735;56.264;43.898;2023-06-01T03:23:25;100174.38;;;12.88;72.54
70323;BME280;57735;56.264;43.898;2023-06-01T03:25:58;100177.56;;;12.83;72.91
70323;BME280;57735;56.264;43.898;2023-06-01T03:28:29;100179.38;;;12.83;73.08
70323;BME280;57735;56.264;43.898;2023-06-01T03:31:00;100185.91;;;12.88;72.88
70323;BME280;57735;56.264;43.898;2023-06-01T03:33:34;100179.50;;;12.98;72.83
70323;BME280;57735;56.264;43.898;2023-06-01T03:36:05;100171.44;;;13.06;72.88
70323;BME280;57735;56.264;43.898;2023-06-01T03:38:37;100178.44;;;13.15;72.26
70323;BME280;57735;56.264;43.898;2023-06-01T03:41:08;100188.75;;;13.26;71.77
70323;BME280;57735;56.264;43.898;2023-06-01T03:43:39;100182.34;;;13.35;71.15
70323;BME280;57735;56.264;43.898;2023-06-01T03:46:10;100190.50;;;13.42;70.75
70323;BME280;57735;56.264;43.898;2023-06-01T03:48:40;100190.16;;;13.45;70.69
70323;BME280;57735;56.264;43.898;2023-06-01T03:51:11;100190.47;;;13.50;70.57
70323;BME280;57735;56.264;43.898;2023-06-01T03:53:42;100190.31;;;13.43;70.29
70323;BME280;57735;56.264;43.898;2023-06-01T03:56:13;100180.09;;;13.47;70.82
70323;BME280;57735;56.264;43.898;2023-06-01T03:58:48;100181.53;;;13.57;70.96
70323;BME280;57735;56.264;43.898;2023-06-01T04:01:19;100192.06;;;13.59;70.67
70323;BME280;57735;56.264;43.898;2023-06-01T04:03:50;100192.38;;;13.64;70.37
70323;BME280;57735;56.264;43.898;2023-06-01T04:06:24;100196.19;;;13.70;70.26
70323;BME280;57735;56.264;43.898;2023-06-01T04:08:55;100190.19;;;13.68;70.25
70323;BME280;57735;56.264;43.898;2023-06-01T04:11:26;100193.78;;;13.75;70.51
70323;BME280;57735;56.264;43.898;2023-06-01T04:13:57;100201.53;;;13.92;70.01
70323;BME280;57735;56.264;43.898;2023-06-01T04:16:30;100203.81;;;14.04;69.71
70323;BME280;57735;56.264;43.898;2023-06-01T04:19:01;100207.19;;;14.20;68.98
70323;BME280;57735;56.264;43.898;2023-06-01T04:21:32;100205.16;;;14.22;68.93
70323;BME280;57735;56.264;43.898;2023-06-01T04:24:03;100210.56;;;14.14;68.80
70323;BME280;57735;56.264;43.898;2023-06-01T04:26:34;100210.84;;;14.05;69.07
70323;BME280;57735;56.264;43.898;2023-06-01T04:29:06;100213.69;;;14.03;68.54
70323;BME280;57735;56.264;43.898;2023-06-01T04:31:39;100211.66;;;14.05;68.39
70323;BME280;57735;56.264;43.898;2023-06-01T04:34:09;100214.25;;;14.13;68.53
70323;BME280;57735;56.264;43.898;2023-06-01T04:36:40;100214.03;;;14.23;68.50
70323;BME280;57735;56.264;43.898;2023-06-01T04:39:11;100207.69;;;14.39;68.15
70323;BME280;57735;56.264;43.898;2023-06-01T04:41:42;100214.47;;;14.64;67.50
70323;BME280;57735;56.264;43.898;2023-06-01T04:44:13;100212.38;;;14.74;66.59
70323;BME280;57735;56.264;43.898;2023-06-01T04:46:46;100213.28;;;14.81;66.30
70323;BME280;57735;56.264;43.898;2023-06-01T04:49:17;100221.25;;;14.89;66.35
70323;BME280;57735;56.264;43.898;2023-06-01T04:51:49;100214.22;;;14.88;65.72
70323;BME280;57735;56.264;43.898;2023-06-01T04:54:22;100218.47;;;14.97;65.73
70323;BME280;57735;56.264;43.898;2023-06-01T04:56:55;100223.47;;;15.00;65.73
70323;BME280;57735;56.264;43.898;2023-06-01T04:59:26;100222.25;;;15.03;65.60
70323;BME280;57735;56.264;43.898;2023-06-01T05:01:57;100220.31;;;14.97;64.49
70323;BME280;57735;56.264;43.898;2023-06-01T05:04:28;100219.97;;;14.85;64.25
70323;BME280;57735;56.264;43.898;2023-06-01T05:06:59;100224.66;;;14.83;64.11
70323;BME280;57735;56.264;43.898;2023-06-01T05:09:30;100235.69;;;14.88;64.54
70323;BME280;57735;56.264;43.898;2023-06-01T05:12:03;100236.34;;;15.05;65.20
70323;BME280;57735;56.264;43.898;2023-06-01T05:14:34;100234.47;;;15.20;64.89
70323;BME280;57735;56.264;43.898;2023-06-01T05:17:05;100236.56;;;15.25;64.19
70323;BME280;57735;56.264;43.898;2023-06-01T05:19:38;100237.97;;;15.35;63.86
70323;BME280;57735;56.264;43.898;2023-06-01T05:22:10;100237.41;;;15.40;63.40
70323;BME280;57735;56.264;43.898;2023-06-01T05:24:42;100238.84;;;15.43;63.20
70323;BME280;57735;56.264;43.898;2023-06-01T05:27:13;100237.47;;;15.47;62.82
70323;BME280;57735;56.264;43.898;2023-06-01T05:29:44;100241.44;;;15.51;62.02
70323;BME280;57735;56.264;43.898;2023-06-01T05:32:15;100243.13;;;15.52;61.87
70323;BME280;57735;56.264;43.898;2023-06-01T05:34:46;100246.81;;;15.51;61.95
70323;BME280;57735;56.264;43.898;2023-06-01T05:37:17;100241.56;;;15.57;62.68
70323;BME280;57735;56.264;43.898;2023-06-01T05:39:47;100236.06;;;15.65;61.67
70323;BME280;57735;56.264;43.898;2023-06-01T05:42:18;100236.19;;;15.79;62.54
70323;BME280;57735;56.264;43.898;2023-06-01T05:44:49;100239.16;;;15.84;60.74
70323;BME280;57735;56.264;43.898;2023-06-01T05:47:23;100244.44;;;15.92;60.41
70323;BME280;57735;56.264;43.898;2023-06-01T05:49:54;100234.94;;;15.96;59.87
70323;BME280;57735;56.264;43.898;2023-06-01T05:52:32;100248.25;;;16.04;59.67
70323;BME280;57735;56.264;43.898;2023-06-01T05:55:04;100243.75;;;16.11;59.58
70323;BME280;57735;56.264;43.898;2023-06-01T05:57:38;100251.34;;;16.22;59.89
70323;BME280;57735;56.264;43.898;2023-06-01T06:00:09;100257.19;;;16.32;59.07
70323;BME280;57735;56.264;43.898;2023-06-01T06:02:44;100262.19;;;16.35;59.27
70323;BME280;57735;56.264;43.898;2023-06-01T06:05:15;100266.41;;;16.45;60.72
70323;BME280;57735;56.264;43.898;2023-06-01T06:07:46;100262.31;;;16.49;59.17
70323;BME280;57735;56.264;43.898;2023-06-01T06:10:17;100268.53;;;16.49;58.49
70323;BME280;57735;56.264;43.898;2023-06-01T06:12:51;100264.88;;;16.57;59.00
70323;BME280;57735;56.264;43.898;2023-06-01T06:15:22;100276.78;;;16.69;59.23
70323;BME280;57735;56.264;43.898;2023-06-01T06:17:53;100272.44;;;16.68;58.71
70323;BME280;57735;56.264;43.898;2023-06-01T06:20:28;100268.53;;;16.77;57.90
70323;BME280;57735;56.264;43.898;2023-06-01T06:22:59;100270.06;;;16.86;58.89
70323;BME280;57735;56.264;43.898;2023-06-01T06:25:32;100277.59;;;16.97;58.00
70323;BME280;57735;56.264;43.898;2023-06-01T06:28:03;100281.75;;;17.00;57.15
70323;BME280;57735;56.264;43.898;2023-06-01T06:30:34;100285.16;;;17.08;57.00
70323;BME280;57735;56.264;43.898;2023-06-01T06:33:05;100284.56;;;17.20;56.63
70323;BME280;57735;56.264;43.898;2023-06-01T06:35:36;100279.00;;;17.28;56.53
70323;BME280;57735;56.264;43.898;2023-06-01T06:38:11;100280.31;;;17.38;56.25
70323;BME280;57735;56.264;43.898;2023-06-01T06:40:43;100279.09;;;17.41;56.50
70323;BME280;57735;56.264;43.898;2023-06-01T06:43:14;100274.75;;;17.47;54.76
70323;BME280;57735;56.264;43.898;2023-06-01T06:45:45;100273.31;;;17.51;53.53
70323;BME280;57735;56.264;43.898;2023-06-01T06:48:16;100268.38;;;17.54;52.45
70323;BME280;57735;56.264;43.898;2023-06-01T06:50:47;100274.66;;;17.68;52.62
70323;BME280;57735;56.264;43.898;2023-06-01T06:53:18;100272.19;;;17.79;52.35
70323;BME280;57735;56.264;43.898;2023-06-01T06:55:49;100279.03;;;17.69;52.38
70323;BME280;57735;56.264;43.898;2023-06-01T06:58:20;100281.91;;;17.67;52.10
70323;BME280;57735;56.264;43.898;2023-06-01T07:00:50;100283.19;;;17.78;51.41
70323;BME280;57735;56.264;43.898;2023-06-01T07:03:21;100279.25;;;17.81;49.84
70323;BME280;57735;56.264;43.898;2023-06-01T07:05:53;100269.13;;;17.89;50.78
70323;BME280;57735;56.264;43.898;2023-06-01T07:08:24;100270.16;;;17.95;49.42
70323;BME280;57735;56.264;43.898;2023-06-01T07:10:57;100279.75;;;18.04;49.31
70323;BME280;57735;56.264;43.898;2023-06-01T07:13:27;100274.34;;;18.17;49.22
70323;BME280;57735;56.264;43.898;2023-06-01T07:15:58;100284.75;;;18.33;47.68
70323;BME280;57735;56.264;43.898;2023-06-01T07:18:29;100274.38;;;18.50;48.39
70323;BME280;57735;56.264;43.898;2023-06-01T07:21:01;100283.94;;;18.53;48.02
70323;BME280;57735;56.264;43.898;2023-06-01T07:23:35;100280.22;;;18.67;48.30
70323;BME280;57735;56.264;43.898;2023-06-01T07:26:06;100279.81;;;18.76;46.38
70323;BME280;57735;56.264;43.898;2023-06-01T07:28:37;100276.91;;;18.71;44.63
70323;BME280;57735;56.264;43.898;2023-06-01T07:31:09;100268.63;;;18.60;44.41
70323;BME280;57735;56.264;43.898;2023-06-01T07:33:41;100269.41;;;18.54;44.43
70323;BME280;57735;56.264;43.898;2023-06-01T07:36:12;100283.94;;;18.53;45.46
70323;BME280;57735;56.264;43.898;2023-06-01T07:38:45;100285.41;;;18.81;47.03
70323;BME280;57735;56.264;43.898;2023-06-01T07:41:16;100278.31;;;19.00;43.39
70323;BME280;57735;56.264;43.898;2023-06-01T07:43:47;100281.44;;;18.77;41.94
70323;BME280;57735;56.264;43.898;2023-06-01T07:46:18;100277.13;;;18.70;43.72
70323;BME280;57735;56.264;43.898;2023-06-01T07:48:49;100274.41;;;18.90;45.87
70323;BME280;57735;56.264;43.898;2023-06-01T07:51:23;100269.75;;;19.16;46.28
70323;BME280;57735;56.264;43.898;2023-06-01T07:53:53;100272.84;;;19.27;45.73
70323;BME280;57735;56.264;43.898;2023-06-01T07:56:28;100257.22;;;19.35;45.87
70323;BME280;57735;56.264;43.898;2023-06-01T07:58:59;100262.44;;;19.30;46.26
70323;BME280;57735;56.264;43.898;2023-06-01T08:01:29;100272.00;;;19.33;43.11
70323;BME280;57735;56.264;43.898;2023-06-01T08:04:00;100269.38;;;19.06;42.30
70323;BME280;57735;56.264;43.898;2023-06-01T08:06:32;100264.59;;;18.95;41.95
70323;BME280;57735;56.264;43.898;2023-06-01T08:09:05;100258.81;;;18.92;43.08
70323;BME280;57735;56.264;43.898;2023-06-01T08:11:36;100268.50;;;19.12;43.10
70323;BME280;57735;56.264;43.898;2023-06-01T08:14:07;100266.22;;;19.23;40.61
70323;BME280;57735;56.264;43.898;2023-06-01T08:16:39;100269.91;;;19.28;39.51
70323;BME280;57735;56.264;43.898;2023-06-01T08:19:10;100266.25;;;18.96;39.60
70323;BME280;57735;56.264;43.898;2023-06-01T08:21:41;100263.19;;;18.73;40.86
70323;BME280;57735;56.264;43.898;2023-06-01T08:24:12;100278.59;;;18.59;40.70
70323;BME280;57735;56.264;43.898;2023-06-01T08:26:43;100275.66;;;18.61;41.31
70323;BME280;57735;56.264;43.898;2023-06-01T08:29:17;100270.63;;;18.97;41.63
70323;BME280;57735;56.264;43.898;2023-06-01T08:31:48;100265.16;;;19.24;41.27
70323;BME280;57735;56.264;43.898;2023-06-01T08:34:19;100270.16;;;19.27;41.82
70323;BME280;57735;56.264;43.898;2023-06-01T08:36:51;100275.56;;;19.13;42.00
70323;BME280;57735;56.264;43.898;2023-06-01T08:39:24;100276.22;;;19.02;40.25
70323;BME280;57735;56.264;43.898;2023-06-01T08:42:08;100276.81;;;19.11;39.37
70323;BME280;57735;56.264;43.898;2023-06-01T08:44:40;100268.09;;;19.15;39.09
70323;BME280;57735;56.264;43.898;2023-06-01T08:47:13;100263.47;;;19.29;38.88
70323;BME280;57735;56.264;43.898;2023-06-01T08:49:45;100270.38;;;19.18;39.57
70323;BME280;57735;56.264;43.898;2023-06-01T08:52:19;100279.75;;;19.09;39.78
70323;BME280;57735;56.264;43.898;2023-06-01T08:54:53;100282.25;;;18.98;39.69
70323;BME280;57735;56.264;43.898;2023-06-01T08:57:25;100277.28;;;18.95;39.31
70323;BME280;57735;56.264;43.898;2023-06-01T08:59:57;100279.69;;;19.36;40.26
70323;BME280;57735;56.264;43.898;2023-06-01T09:02:30;100285.59;;;19.71;39.91
70323;BME280;57735;56.264;43.898;2023-06-01T09:05:01;100291.53;;;19.93;39.10
70323;BME280;57735;56.264;43.898;2023-06-01T09:07:35;100272.66;;;20.11;38.79
70323;BME280;57735;56.264;43.898;2023-06-01T09:10:06;100267.72;;;20.08;37.26
70323;BME280;57735;56.264;43.898;2023-06-01T09:12:51;100281.34;;;20.19;37.44
70323;BME280;57735;56.264;43.898;2023-06-01T09:15:23;100273.75;;;20.41;38.93
70323;BME280;57735;56.264;43.898;2023-06-01T09:18:09;100278.03;;;20.49;37.31
70323;BME280;57735;56.264;43.898;2023-06-01T09:20:43;100276.13;;;20.56;38.06
70323;BME280;57735;56.264;43.898;2023-06-01T09:23:24;100275.13;;;20.75;38.53
70323;BME280;57735;56.264;43.898;2023-06-01T09:26:10;100279.97;;;20.67;38.10
70323;BME280;57735;56.264;43.898;2023-06-01T09:28:58;100278.00;;;20.55;39.66
70323;BME280;57735;56.264;43.898;2023-06-01T09:34:15;100289.66;;;20.99;37.93
70323;BME280;57735;56.264;43.898;2023-06-01T09:36:51;100290.06;;;21.28;37.59
70323;BME280;57735;56.264;43.898;2023-06-01T09:39:24;100298.25;;;21.39;37.29
70323;BME280;57735;56.264;43.898;2023-06-01T09:41:56;100302.41;;;21.42;36.21
70323;BME280;57735;56.264;43.898;2023-06-01T09:44:30;100294.69;;;21.20;36.82
70323;BME280;57735;56.264;43.898;2023-06-01T09:47:05;100305.72;;;21.26;38.43
70323;BME280;57735;56.264;43.898;2023-06-01T09:49:42;100304.78;;;21.32;37.78
70323;BME280;57735;56.264;43.898;2023-06-01T09:52:14;100311.38;;;21.17;36.34
70323;BME280;57735;56.264;43.898;2023-06-01T09:54:48;100314.25;;;20.79;37.55
70323;BME280;57735;56.264;43.898;2023-06-01T09:57:26;100311.47;;;20.61;38.08
70323;BME280;57735;56.264;43.898;2023-06-01T10:00:01;100310.31;;;20.50;38.26
70323;BME280;57735;56.264;43.898;2023-06-01T10:02:40;100314.50;;;20.46;36.67
70323;BME280;57735;56.264;43.898;2023-06-01T10:05:12;100312.47;;;20.35;37.05
70323;BME280;57735;56.264;43.898;2023-06-01T10:07:46;100308.56;;;20.31;37.69
70323;BME280;57735;56.264;43.898;2023-06-01T10:10:17;100308.53;;;20.38;38.21
70323;BME280;57735;56.264;43.898;2023-06-01T10:12:48;100311.19;;;20.44;38.71
70323;BME280;57735;56.264;43.898;2023-06-01T10:15:22;100314.91;;;20.50;38.08
70323;BME280;57735;56.264;43.898;2023-06-01T10:17:53;100307.34;;;20.59;39.83
70323;BME280;57735;56.264;43.898;2023-06-01T10:20:26;100312.25;;;20.68;38.61
70323;BME280;57735;56.264;43.898;2023-06-01T10:22:57;100313.47;;;20.97;39.16
70323;BME280;57735;56.264;43.898;2023-06-01T10:25:47;100313.47;;;21.15;37.12
70323;BME280;57735;56.264;43.898;2023-06-01T10:28:21;100318.28;;;21.13;37.46
70323;BME280;57735;56.264;43.898;2023-06-01T10:34:09;100320.47;;;21.30;36.26
70323;BME280;57735;56.264;43.898;2023-06-01T10:39:30;100317.53;;;21.68;36.17
70323;BME280;57735;56.264;43.898;2023-06-01T10:44:46;100315.19;;;21.71;35.40
70323;BME280;57735;56.264;43.898;2023-06-01T10:52:26;100328.25;;;21.44;35.46
70323;BME280;57735;56.264;43.898;2023-06-01T10:57:37;100331.47;;;21.53;34.68
70323;BME280;57735;56.264;43.898;2023-06-01T11:00:10;100336.59;;;21.61;35.34
70323;BME280;57735;56.264;43.898;2023-06-01T11:02:51;100331.06;;;21.86;34.75
70323;BME280;57735;56.264;43.898;2023-06-01T11:05:43;100333.84;;;21.79;33.98
70323;BME280;57735;56.264;43.898;2023-06-01T11:13:33;100342.75;;;21.68;34.88
70323;BME280;57735;56.264;43.898;2023-06-01T11:19:03;100344.66;;;21.68;34.16
70323;BME280;57735;56.264;43.898;2023-06-01T11:21:40;100341.72;;;21.51;34.30
70323;BME280;57735;56.264;43.898;2023-06-01T11:24:16;100338.25;;;21.44;35.00
70323;BME280;57735;56.264;43.898;2023-06-01T11:26:48;100346.25;;;21.39;34.56
70323;BME280;57735;56.264;43.898;2023-06-01T11:29:24;100340.97;;;21.44;34.87
70323;BME280;57735;56.264;43.898;2023-06-01T11:32:00;100339.44;;;21.48;34.65
70323;BME280;57735;56.264;43.898;2023-06-01T11:34:35;100345.13;;;21.28;36.09
70323;BME280;57735;56.264;43.898;2023-06-01T11:39:45;100337.50;;;21.37;35.57
70323;BME280;57735;56.264;43.898;2023-06-01T11:42:19;100335.06;;;21.47;35.79
70323;BME280;57735;56.264;43.898;2023-06-01T11:44:57;100342.88;;;21.62;34.96
70323;BME280;57735;56.264;43.898;2023-06-01T11:47:37;100334.78;;;21.55;34.43
70323;BME280;57735;56.264;43.898;2023-06-01T11:50:20;100330.56;;;21.59;34.93
70323;BME280;57735;56.264;43.898;2023-06-01T11:52:52;100334.19;;;21.53;35.32
70323;BME280;57735;56.264;43.898;2023-06-01T11:55:24;100338.25;;;21.62;34.99
70323;BME280;57735;56.264;43.898;2023-06-01T11:57:55;100328.91;;;21.58;34.92
70323;BME280;57735;56.264;43.898;2023-06-01T12:00:26;100318.06;;;21.76;35.10
70323;BME280;57735;56.264;43.898;2023-06-01T12:03:10;100324.81;;;22.04;35.28
70323;BME280;57735;56.264;43.898;2023-06-01T12:05:41;100323.97;;;22.33;34.89
70323;BME280;57735;56.264;43.898;2023-06-01T12:08:19;100322.28;;;22.74;33.70
70323;BME280;57735;56.264;43.898;2023-06-01T12:10:51;100325.84;;;23.32;32.29
70323;BME280;57735;56.264;43.898;2023-06-01T12:13:23;100315.47;;;23.81;31.94
70323;BME280;57735;56.264;43.898;2023-06-01T12:15:57;100319.13;;;24.15;31.88
70323;BME280;57735;56.264;43.898;2023-06-01T12:18:29;100318.00;;;24.56;32.74
70323;BME280;57735;56.264;43.898;2023-06-01T12:21:10;100314.44;;;24.73;31.04
70323;BME280;57735;56.264;43.898;2023-06-01T12:23:42;100308.06;;;24.84;30.04
70323;BME280;57735;56.264;43.898;2023-06-01T12:26:13;100311.81;;;25.11;30.52
70323;BME280;57735;56.264;43.898;2023-06-01T12:28:52;100315.88;;;25.30;29.65
70323;BME280;57735;56.264;43.898;2023-06-01T12:31:25;100315.41;;;25.55;29.87
70323;BME280;57735;56.264;43.898;2023-06-01T12:33:56;100318.75;;;25.79;29.49
70323;BME280;57735;56.264;43.898;2023-06-01T12:36:29;100322.66;;;25.88;29.42
70323;BME280;57735;56.264;43.898;2023-06-01T12:39:05;100317.00;;;24.62;30.54
70323;BME280;57735;56.264;43.898;2023-06-01T12:41:36;100321.97;;;23.80;30.82
70323;BME280;57735;56.264;43.898;2023-06-01T12:44:07;100310.16;;;24.77;30.23
70323;BME280;57735;56.264;43.898;2023-06-01T12:46:38;100318.22;;;25.82;28.87
70323;BME280;57735;56.264;43.898;2023-06-01T12:49:16;100317.44;;;26.67;28.62
70323;BME280;57735;56.264;43.898;2023-06-01T12:51:50;100312.72;;;27.27;28.13
70323;BME280;57735;56.264;43.898;2023-06-01T12:54:21;100320.72;;;26.11;29.09
70323;BME280;57735;56.264;43.898;2023-06-01T12:56:52;100324.38;;;26.48;28.59
70323;BME280;57735;56.264;43.898;2023-06-01T12:59:23;100316.84;;;27.29;27.51
70323;BME280;57735;56.264;43.898;2023-06-01T13:01:59;100328.81;;;27.70;26.87
70323;BME280;57735;56.264;43.898;2023-06-01T13:04:33;100321.94;;;27.58;26.53
70323;BME280;57735;56.264;43.898;2023-06-01T13:07:04;100329.19;;;26.36;28.08
70323;BME280;57735;56.264;43.898;2023-06-01T13:09:35;100320.69;;;27.38;27.11
70323;BME280;57735;56.264;43.898;2023-06-01T13:12:11;100330.13;;;27.16;27.49
70323;BME280;57735;56.264;43.898;2023-06-01T13:14:44;100325.31;;;26.32;27.51
70323;BME280;57735;56.264;43.898;2023-06-01T13:17:15;100313.19;;;25.14;30.70
70323;BME280;57735;56.264;43.898;2023-06-01T13:19:46;100319.47;;;24.81;31.15
70323;BME280;57735;56.264;43.898;2023-06-01T13:22:19;100317.00;;;26.49;29.23
70323;BME280;57735;56.264;43.898;2023-06-01T13:24:51;100312.91;;;26.78;28.41
70323;BME280;57735;56.264;43.898;2023-06-01T13:27:21;100315.41;;;27.74;26.89
70323;BME280;57735;56.264;43.898;2023-06-01T13:29:52;100317.66;;;26.93;27.44
70323;BME280;57735;56.264;43.898;2023-06-01T13:32:23;100319.38;;;25.48;28.10
70323;BME280;57735;56.264;43.898;2023-06-01T13:34:54;100309.94;;;24.05;30.90
70323;BME280;57735;56.264;43.898;2023-06-01T13:37:25;100310.59;;;23.43;31.36
70323;BME280;57735;56.264;43.898;2023-06-01T13:39:56;100312.03;;;22.99;32.77
70323;BME280;57735;56.264;43.898;2023-06-01T13:42:27;100316.47;;;22.58;33.43
70323;BME280;57735;56.264;43.898;2023-06-01T13:44:58;100312.09;;;22.57;33.58